createdAt,value
2022-08-05T00:02:07.354Z,46.90
2022-08-05T00:06:04.978Z,46.71
2022-08-05T00:09:12.752Z,46.89
2022-08-05T00:12:55.855Z,46.87
2022-08-05T00:16:18.797Z,47.12
2022-08-05T00:20:02.786Z,47.27
2022-08-05T00:23:23.754Z,47.37
2022-08-05T00:26:58.609Z,47.48
2022-08-05T00:30:20.833Z,47.49
2022-08-05T00:34:54.890Z,47.57
2022-08-05T00:37:35.809Z,47.56
2022-08-05T00:41:13.765Z,47.69
2022-08-05T00:44:37.836Z,47.63
2022-08-05T00:48:05.146Z,47.61
2022-08-05T00:51:50.994Z,47.55
2022-08-05T00:55:08.776Z,47.71
2022-08-05T00:58:30.767Z,47.94
2022-08-05T01:01:52.022Z,47.98
2022-08-05T01:05:12.778Z,47.67
2022-08-05T01:08:43.081Z,47.79
2022-08-05T01:12:09.364Z,47.60
2022-08-05T01:15:47.868Z,47.49
2022-08-05T01:19:14.380Z,47.71
2022-08-05T01:22:40.841Z,47.63
2022-08-05T01:26:49.811Z,47.73
2022-08-05T01:30:17.679Z,48.03
2022-08-05T01:33:39.827Z,48.54
2022-08-05T01:37:08.960Z,48.67
2022-08-05T01:40:32.814Z,48.87
2022-08-05T01:43:54.806Z,49.04
2022-08-05T01:47:16.913Z,49.35
2022-08-05T01:50:53.873Z,49.28
2022-08-05T01:54:17.979Z,49.72
2022-08-05T01:58:13.736Z,49.83
2022-08-05T02:01:25.518Z,49.87
2022-08-05T02:04:52.125Z,49.98
2022-08-05T02:08:12.858Z,49.81
2022-08-05T02:12:02.817Z,49.59
2022-08-05T02:15:33.517Z,49.41
2022-08-05T02:19:01.808Z,49.25
2022-08-05T02:22:43.806Z,49.44
2022-08-05T02:26:05.833Z,49.39
2022-08-05T02:29:59.622Z,49.25
2022-08-05T02:33:13.845Z,49.08
2022-08-05T02:36:45.823Z,49.42
2022-08-05T02:40:09.602Z,49.12
2022-08-05T02:43:34.460Z,49.32
2022-08-05T02:47:00.762Z,49.41
2022-08-05T02:50:22.814Z,49.31
2022-08-05T02:53:45.849Z,49.40
2022-08-05T02:58:09.288Z,49.40
2022-08-05T03:00:51.814Z,49.29
2022-08-05T03:04:15.895Z,49.33
2022-08-05T03:08:01.056Z,49.26
2022-08-05T03:11:56.954Z,48.89
2022-08-05T03:15:23.613Z,48.84
2022-08-05T03:18:44.840Z,48.84
2022-08-05T03:22:16.556Z,48.83
2022-08-05T03:26:03.808Z,48.30
2022-08-05T03:29:17.283Z,48.28
2022-08-05T03:32:38.848Z,48.70
2022-08-05T03:35:59.845Z,48.57
2022-08-05T03:39:27.720Z,48.91
2022-08-05T03:42:52.526Z,48.44
2022-08-05T03:46:13.856Z,48.22
2022-08-05T03:49:51.323Z,48.14
2022-08-05T03:55:50.310Z,47.84
2022-08-05T03:57:00.623Z,47.77
2022-08-05T04:00:24.842Z,47.65
2022-08-05T04:04:09.979Z,47.64
2022-08-05T04:07:33.061Z,47.38
2022-08-05T04:10:53.855Z,47.82
2022-08-05T04:14:17.940Z,47.55
2022-08-05T04:17:56.199Z,47.52
2022-08-05T04:22:05.162Z,47.08
2022-08-05T04:25:00.856Z,47.07
2022-08-05T04:28:30.646Z,46.89
2022-08-05T04:31:52.851Z,46.87
2022-08-05T04:35:19.725Z,46.79
2022-08-05T04:38:40.894Z,46.47
2022-08-05T04:42:03.661Z,46.47
2022-08-05T04:45:47.825Z,46.33
2022-08-05T04:49:05.859Z,46.00
2022-08-05T04:52:34.046Z,45.54
2022-08-05T04:56:33.548Z,45.60
2022-08-05T04:59:39.243Z,45.29
2022-08-05T05:03:03.753Z,44.94
2022-08-05T05:06:40.723Z,44.51
2022-08-05T05:10:06.368Z,43.90
2022-08-05T05:13:24.903Z,43.98
2022-08-05T05:16:45.896Z,43.34
2022-08-05T05:20:10.883Z,42.85
2022-08-05T05:23:39.285Z,42.65
2022-08-05T05:27:12.973Z,42.24
2022-08-05T05:30:37.870Z,41.98
2022-08-05T05:34:02.524Z,42.05
2022-08-05T05:37:25.860Z,41.79
2022-08-05T05:40:57.864Z,41.23
2022-08-05T05:44:36.338Z,41.02
2022-08-05T05:48:06.061Z,40.69
2022-08-05T05:51:49.714Z,40.25
2022-08-05T05:55:15.876Z,39.91
2022-08-05T05:58:36.889Z,39.31
2022-08-05T06:02:01.862Z,38.73
2022-08-05T06:05:17.259Z,38.53
2022-08-05T06:08:39.732Z,38.66
2022-08-05T06:12:02.463Z,38.42
2022-08-05T06:15:24.497Z,38.07
2022-08-05T06:19:08.058Z,37.85
2022-08-05T06:22:37.921Z,37.72
2022-08-05T06:26:12.835Z,37.98
2022-08-05T06:29:52.097Z,38.15
2022-08-05T06:33:19.376Z,38.03
2022-08-05T06:36:57.954Z,38.50
2022-08-05T06:40:21.406Z,38.47
2022-08-05T06:43:57.661Z,38.87
2022-08-05T06:48:11.646Z,38.87
2022-08-05T06:51:00.906Z,38.79
2022-08-05T06:54:21.926Z,38.66
2022-08-05T06:57:57.257Z,38.73
2022-08-05T07:01:27.651Z,38.74
2022-08-05T07:04:52.916Z,38.48
2022-08-05T07:08:13.907Z,38.89
2022-08-05T07:11:39.944Z,38.63
2022-08-05T07:15:11.913Z,38.79
2022-08-05T07:20:10.605Z,38.83
2022-08-05T07:23:06.503Z,38.37
2022-08-05T07:26:26.914Z,38.62
2022-08-05T07:30:27.873Z,38.42
2022-08-05T07:33:37.045Z,38.27
2022-08-05T07:36:57.889Z,38.21
2022-08-05T07:40:32.125Z,37.99
2022-08-05T07:43:56.402Z,37.69
2022-08-05T07:47:17.966Z,37.58
2022-08-05T07:50:38.912Z,37.52
2022-08-05T07:53:59.923Z,37.19
2022-08-05T07:57:51.176Z,37.13
2022-08-05T08:01:06.186Z,36.27
2022-08-05T08:04:37.565Z,36.19
2022-08-05T08:07:59.591Z,36.15
2022-08-05T08:11:27.386Z,36.10
2022-08-05T08:15:02.715Z,36.32
2022-08-05T08:18:23.944Z,36.15
2022-08-05T08:21:44.922Z,35.95
2022-08-05T08:25:16.479Z,35.84
2022-08-05T08:28:55.302Z,35.28
2022-08-05T08:32:28.221Z,34.87
2022-08-05T08:35:52.796Z,34.81
2022-08-05T08:39:29.971Z,34.63
2022-08-05T08:42:52.554Z,34.65
2022-08-05T08:46:16.890Z,34.45
2022-08-05T08:50:22.470Z,34.19
2022-08-05T08:53:20.962Z,34.25
2022-08-05T08:56:47.627Z,33.91
2022-08-05T09:00:11.960Z,33.41
2022-08-05T09:03:40.355Z,33.48
2022-08-05T09:07:01.936Z,33.39
2022-08-05T09:10:32.951Z,33.34
2022-08-05T09:14:09.738Z,33.32
2022-08-05T09:17:41.075Z,33.32
2022-08-05T09:20:57.966Z,33.11
2022-08-05T09:24:21.972Z,32.72
2022-08-05T09:28:05.388Z,32.67
2022-08-05T09:32:39.108Z,32.53
2022-08-05T09:35:10.947Z,32.69
2022-08-05T09:38:47.955Z,32.48
2022-08-05T09:42:24.557Z,32.47
2022-08-05T09:46:06.857Z,32.22
2022-08-05T09:50:00.444Z,31.97
2022-08-05T09:53:22.750Z,31.69
2022-08-05T09:56:52.373Z,31.55
2022-08-05T10:00:20.954Z,31.73
2022-08-05T10:03:59.557Z,31.58
2022-08-05T10:08:11.196Z,31.84
2022-08-05T10:11:02.971Z,31.30
2022-08-05T10:14:45.000Z,31.23
2022-08-05T10:18:22.997Z,30.84
2022-08-05T10:21:43.979Z,30.89
2022-08-05T10:25:06.011Z,30.95
2022-08-05T10:28:30.534Z,30.86
2022-08-05T10:32:52.206Z,30.53
2022-08-05T10:35:33.638Z,30.63
2022-08-05T10:39:05.292Z,30.44
2022-08-05T10:42:36.968Z,29.84
2022-08-05T10:46:10.534Z,29.48
2022-08-05T10:49:48.956Z,29.01
2022-08-05T10:53:17.585Z,28.72
2022-08-05T10:56:43.974Z,29.07
2022-08-05T11:00:23.095Z,28.97
2022-08-05T11:03:44.061Z,28.85
2022-08-05T11:07:12.989Z,28.72
2022-08-05T11:10:50.258Z,28.44
2022-08-05T11:14:25.590Z,28.42
2022-08-05T11:18:03.912Z,28.51
2022-08-05T11:21:50.979Z,28.85
2022-08-05T11:26:05.970Z,28.67
2022-08-05T11:29:47.965Z,28.99
2022-08-05T11:33:46.503Z,28.50
2022-08-05T11:38:29.935Z,28.18
2022-08-05T11:41:34.702Z,27.98
2022-08-05T11:44:54.370Z,28.27
2022-08-05T11:48:21.970Z,28.23
2022-08-05T11:51:48.439Z,27.70
2022-08-05T11:55:12.598Z,27.75
2022-08-05T11:58:53.134Z,27.72
2022-08-05T12:02:30.420Z,27.79
2022-08-05T12:05:52.997Z,27.77
2022-08-05T12:09:20.060Z,27.51
2022-08-05T12:12:58.487Z,27.46
2022-08-05T12:16:31.201Z,27.43
2022-08-05T12:20:27.121Z,27.40
2022-08-05T12:23:51.040Z,27.16
2022-08-05T12:27:25.011Z,26.83
2022-08-05T12:30:52.010Z,26.45
2022-08-05T12:34:20.716Z,25.75
2022-08-05T12:37:43.019Z,25.16
2022-08-05T12:41:06.850Z,24.75
2022-08-05T12:44:33.837Z,24.64
2022-08-05T12:48:17.028Z,23.42
2022-08-05T12:52:12.472Z,20.99
2022-08-05T12:55:32.656Z,19.59
2022-08-05T12:59:00.955Z,19.85
2022-08-05T13:02:30.266Z,18.65
2022-08-05T13:05:50.994Z,18.31
2022-08-05T13:09:12.685Z,19.11
2022-08-05T13:12:37.006Z,20.07
2022-08-05T13:16:12.065Z,20.44
2022-08-05T13:19:40.471Z,20.18
2022-08-05T13:23:14.011Z,20.40
2022-08-05T13:26:37.053Z,20.05
2022-08-05T13:30:32.863Z,18.77
2022-08-05T13:34:22.502Z,17.79
2022-08-05T13:37:34.634Z,17.16
2022-08-05T13:40:56.027Z,16.30
2022-08-05T13:44:17.058Z,15.78
2022-08-05T13:48:09.691Z,15.69
2022-08-05T13:51:24.078Z,14.72
2022-08-05T13:54:53.366Z,14.82
2022-08-05T13:58:14.019Z,14.32
2022-08-05T14:01:59.122Z,14.37
2022-08-05T14:05:48.154Z,13.65
2022-08-05T14:09:03.004Z,13.75
2022-08-05T14:12:32.822Z,13.75
2022-08-05T14:16:06.890Z,13.30
2022-08-05T14:19:32.006Z,13.13
2022-08-05T14:23:13.020Z,12.98
2022-08-05T14:26:38.984Z,12.85
2022-08-05T14:30:20.395Z,12.42
2022-08-05T14:33:59.381Z,12.32
2022-08-05T14:37:21.020Z,12.54
2022-08-05T14:40:44.055Z,12.03
2022-08-05T14:44:19.901Z,12.19
2022-08-05T14:48:04.857Z,12.02
2022-08-05T14:51:22.031Z,12.61
2022-08-05T14:54:53.108Z,12.51
2022-08-05T14:58:14.216Z,11.73
2022-08-05T15:01:47.048Z,11.74
2022-08-05T15:05:13.431Z,11.93
2022-08-05T15:08:58.104Z,11.79
2022-08-05T15:12:16.763Z,11.58
2022-08-05T15:15:55.842Z,11.40
2022-08-05T15:19:23.745Z,11.83
2022-08-05T15:22:46.030Z,12.22
2022-08-05T15:26:13.047Z,12.18
2022-08-05T15:29:34.023Z,12.30
2022-08-05T15:33:03.072Z,12.94
2022-08-05T15:36:25.713Z,13.03
2022-08-05T15:40:59.098Z,12.65
2022-08-05T15:43:28.098Z,12.95
2022-08-05T15:46:49.079Z,12.78
2022-08-05T15:50:15.421Z,13.57
2022-08-05T15:53:38.146Z,14.35
2022-08-05T15:57:12.046Z,14.51
2022-08-05T16:00:50.738Z,14.83
2022-08-05T16:04:15.036Z,16.71
2022-08-05T16:07:39.078Z,18.21
2022-08-05T16:11:07.087Z,18.63
2022-08-05T16:14:29.038Z,18.83
2022-08-05T16:17:57.776Z,20.14
2022-08-05T16:21:19.058Z,21.05
2022-08-05T16:24:52.001Z,22.13
2022-08-05T16:28:16.021Z,23.00
2022-08-05T16:31:56.968Z,23.47
2022-08-05T16:35:18.078Z,24.13
2022-08-05T16:38:39.127Z,24.73
2022-08-05T16:42:15.770Z,25.03
2022-08-05T16:46:06.411Z,25.63
2022-08-05T16:49:20.037Z,26.06
2022-08-05T16:52:45.944Z,26.24
2022-08-05T16:56:07.112Z,26.61
2022-08-05T16:59:30.558Z,27.03
2022-08-05T17:02:52.085Z,27.55
2022-08-05T17:06:13.047Z,28.06
2022-08-05T17:09:56.055Z,28.36
2022-08-05T17:13:21.397Z,28.48
2022-08-05T17:16:59.114Z,28.79
2022-08-05T17:20:24.989Z,29.12
2022-08-05T17:24:05.535Z,29.62
2022-08-05T17:27:27.221Z,29.79
2022-08-05T17:30:54.110Z,30.15
2022-08-05T17:34:17.982Z,30.55
2022-08-05T17:37:41.513Z,30.85
2022-08-05T17:41:06.064Z,31.14
2022-08-05T17:44:32.523Z,31.10
2022-08-05T17:47:55.700Z,31.70
2022-08-05T17:51:21.425Z,32.15
2022-08-05T17:54:44.138Z,32.22
2022-08-05T17:58:07.212Z,32.08
2022-08-05T18:01:24.100Z,32.49
2022-08-05T18:04:50.977Z,32.30
2022-08-05T18:08:14.167Z,32.25
2022-08-05T18:11:36.111Z,32.67
2022-08-05T18:14:58.075Z,32.57
2022-08-05T18:18:19.093Z,32.90
2022-08-05T18:22:07.733Z,33.24
2022-08-05T18:25:14.112Z,33.29
2022-08-05T18:28:38.117Z,33.39
2022-08-05T18:32:02.086Z,33.78
2022-08-05T18:35:49.718Z,33.62
2022-08-05T18:39:06.583Z,33.93
2022-08-05T18:42:31.248Z,34.04
2022-08-05T18:45:52.142Z,34.35
2022-08-05T18:49:44.618Z,34.76
2022-08-05T18:53:22.169Z,34.73
2022-08-05T18:56:51.076Z,35.15
2022-08-05T19:00:20.618Z,35.02
2022-08-05T19:03:52.868Z,35.54
2022-08-05T19:07:15.121Z,35.69
2022-08-05T19:10:37.527Z,35.93
2022-08-05T19:14:00.919Z,36.20
2022-08-05T19:17:28.480Z,36.26
2022-08-05T19:21:08.242Z,36.62
2022-08-05T19:24:34.710Z,36.61
2022-08-05T19:27:56.129Z,36.84
2022-08-05T19:31:26.148Z,37.11
2022-08-05T19:34:54.736Z,37.50
2022-08-05T19:38:16.115Z,37.40
2022-08-05T19:42:06.215Z,37.56
2022-08-05T19:45:19.109Z,37.78
2022-08-05T19:48:41.141Z,37.75
2022-08-05T19:52:09.219Z,38.15
2022-08-05T19:56:13.588Z,38.16
2022-08-05T19:59:55.053Z,37.96
2022-08-05T20:03:01.123Z,37.96
2022-08-05T20:06:29.675Z,38.02
2022-08-05T20:09:53.795Z,38.20
2022-08-05T20:13:16.130Z,38.02
2022-08-05T20:16:37.164Z,38.43
2022-08-05T20:19:58.170Z,38.42
2022-08-05T20:23:19.121Z,38.50
2022-08-05T20:26:41.387Z,38.58
2022-08-05T20:30:03.203Z,38.50
2022-08-05T20:33:25.161Z,38.72
2022-08-05T20:36:46.129Z,38.79
2022-08-05T20:40:07.240Z,39.05
2022-08-05T20:43:39.814Z,39.15
2022-08-05T20:47:04.140Z,39.28
2022-08-05T20:50:25.113Z,39.40
2022-08-05T20:53:56.369Z,39.33
2022-08-05T20:57:42.003Z,39.36
2022-08-05T21:00:59.275Z,39.32
2022-08-05T21:04:20.164Z,39.53
2022-08-05T21:07:50.976Z,39.55
2022-08-05T21:12:06.525Z,39.62
2022-08-05T21:14:56.152Z,39.43
2022-08-05T21:18:19.174Z,39.46
2022-08-05T21:21:44.285Z,39.80
2022-08-05T21:25:05.921Z,40.04
2022-08-05T21:28:30.620Z,40.21
2022-08-05T21:31:52.185Z,40.29
2022-08-05T21:35:18.273Z,40.28
2022-08-05T21:38:50.149Z,40.26
2022-08-05T21:42:31.095Z,40.37
2022-08-05T21:45:57.381Z,40.42
2022-08-05T21:49:58.498Z,40.40
2022-08-05T21:53:04.437Z,40.46
2022-08-05T21:56:29.176Z,40.47
2022-08-05T22:00:05.984Z,40.93
2022-08-05T22:03:48.862Z,40.64
2022-08-05T22:07:08.159Z,40.91
2022-08-05T22:10:33.227Z,40.95
2022-08-05T22:14:31.327Z,41.32
2022-08-05T22:17:40.127Z,41.36
2022-08-05T22:21:19.535Z,41.44
2022-08-05T22:24:58.225Z,41.70
2022-08-05T22:28:21.171Z,41.92
2022-08-05T22:31:44.404Z,41.85
2022-08-05T22:35:05.224Z,42.20
2022-08-05T22:38:27.155Z,42.30
2022-08-05T22:42:09.665Z,42.41
2022-08-05T22:45:33.175Z,42.51
2022-08-05T22:48:55.220Z,42.57
2022-08-05T22:52:30.246Z,42.58
2022-08-05T22:55:56.953Z,42.77
2022-08-05T22:59:44.049Z,42.66
2022-08-05T23:03:00.336Z,42.90
2022-08-05T23:06:26.388Z,42.87
2022-08-05T23:09:57.037Z,43.36
2022-08-05T23:13:20.188Z,43.26
2022-08-05T23:16:59.175Z,43.29
2022-08-05T23:20:24.531Z,43.27
2022-08-05T23:23:46.224Z,43.18
2022-08-05T23:27:07.194Z,43.45
2022-08-05T23:30:31.354Z,43.54
2022-08-05T23:34:02.857Z,43.39
2022-08-05T23:37:27.228Z,43.37
2022-08-05T23:40:57.202Z,43.63
2022-08-05T23:44:19.768Z,43.40
2022-08-05T23:47:47.931Z,43.71
2022-08-05T23:51:09.187Z,43.76
2022-08-05T23:54:33.946Z,43.86
2022-08-05T23:57:57.207Z,43.89
